createdAt,value
2022-12-09T00:01:03.615Z,21.27
2022-12-09T00:03:30.394Z,24.00
2022-12-09T00:05:57.242Z,18.08
2022-12-09T00:08:23.992Z,22.05
2022-12-09T00:10:50.961Z,25.38
2022-12-09T00:13:17.821Z,13.23
2022-12-09T00:15:44.725Z,14.77
2022-12-09T00:18:11.584Z,18.00
2022-12-09T00:20:38.213Z,25.15
2022-12-09T00:23:06.113Z,16.08
2022-12-09T00:25:32.773Z,23.90
2022-12-09T00:27:59.429Z,20.15
2022-12-09T00:30:26.012Z,21.00
2022-12-09T00:32:52.676Z,17.27
2022-12-09T00:35:19.267Z,18.58
2022-12-09T00:37:46.062Z,20.52
2022-12-09T00:40:13.443Z,19.60
2022-12-09T00:42:40.075Z,19.38
2022-12-09T00:45:08.022Z,23.50
2022-12-09T00:47:35.633Z,18.17
2022-12-09T00:50:02.977Z,22.50
2022-12-09T00:52:29.894Z,21.65
2022-12-09T00:54:56.835Z,16.33
2022-12-09T00:57:23.845Z,14.05
2022-12-09T00:59:50.406Z,16.38
2022-12-09T01:02:17.446Z,9.38
2022-12-09T01:04:44.517Z,13.38
2022-12-09T01:07:11.417Z,15.40
2022-12-09T01:09:38.112Z,13.07
2022-12-09T01:12:05.300Z,15.45
2022-12-09T01:14:32.034Z,17.25
2022-12-09T01:16:58.613Z,14.25
2022-12-09T01:19:25.359Z,13.27
2022-12-09T01:21:55.499Z,14.02
2022-12-09T01:24:22.839Z,13.10
2022-12-09T01:26:49.615Z,17.40
2022-12-09T01:29:16.361Z,9.60
2022-12-09T01:31:43.119Z,12.50
2022-12-09T01:34:10.240Z,13.63
2022-12-09T01:36:37.013Z,16.20
2022-12-09T01:39:04.138Z,14.30
2022-12-09T01:41:30.764Z,6.22
2022-12-09T01:44:12.369Z,10.27
2022-12-09T01:46:39.073Z,14.45
2022-12-09T01:49:08.636Z,14.45
2022-12-09T01:51:36.741Z,15.40
2022-12-09T01:54:03.751Z,15.52
2022-12-09T01:56:33.912Z,14.82
2022-12-09T01:59:09.766Z,13.98
2022-12-09T02:01:36.919Z,16.50
2022-12-09T02:04:04.928Z,14.60
2022-12-09T02:06:32.068Z,13.50
2022-12-09T02:08:59.641Z,15.60
2022-12-09T02:11:57.882Z,16.58
2022-12-09T02:14:32.622Z,15.43
2022-12-09T02:17:17.948Z,15.00
2022-12-09T02:20:01.487Z,15.80
2022-12-09T02:22:34.647Z,16.98
2022-12-09T02:25:10.842Z,14.02
2022-12-09T02:28:15.583Z,16.27
2022-12-09T02:30:48.004Z,13.80
2022-12-09T02:33:25.984Z,14.50
2022-12-09T02:35:58.613Z,16.75
2022-12-09T02:38:31.774Z,11.55
2022-12-09T02:41:00.175Z,13.02
2022-12-09T02:43:31.171Z,14.07
2022-12-09T02:46:00.499Z,13.45
2022-12-09T02:48:34.012Z,14.57
2022-12-09T02:51:07.453Z,18.63
2022-12-09T02:53:35.897Z,15.13
2022-12-09T02:56:04.547Z,21.40
2022-12-09T02:58:31.100Z,13.15
2022-12-09T03:00:58.394Z,22.45
2022-12-09T03:03:26.366Z,14.85
2022-12-09T03:06:03.292Z,15.38
2022-12-09T03:08:47.481Z,24.75
2022-12-09T03:11:17.282Z,15.20
2022-12-09T03:14:08.647Z,20.27
2022-12-09T03:16:37.017Z,17.80
2022-12-09T03:19:14.242Z,18.73
2022-12-09T03:21:50.038Z,17.35
2022-12-09T03:24:17.778Z,15.27
2022-12-09T03:26:45.089Z,15.77
2022-12-09T03:29:17.096Z,17.98
2022-12-09T03:31:45.908Z,14.70
2022-12-09T03:34:17.093Z,16.90
2022-12-09T03:36:47.962Z,14.75
2022-12-09T03:39:17.214Z,12.68
2022-12-09T03:41:47.648Z,13.20
2022-12-09T03:44:22.709Z,15.57
2022-12-09T03:46:49.462Z,15.32
2022-12-09T03:49:16.749Z,16.35
2022-12-09T03:51:51.145Z,13.55
2022-12-09T03:54:25.610Z,14.93
2022-12-09T03:56:55.514Z,16.63
2022-12-09T03:59:24.385Z,13.25
2022-12-09T04:01:52.868Z,16.70
2022-12-09T04:04:19.775Z,15.63
2022-12-09T04:06:47.738Z,15.05
2022-12-09T04:09:14.985Z,15.93
2022-12-09T04:11:41.553Z,13.85
2022-12-09T04:14:15.076Z,18.30
2022-12-09T04:16:42.641Z,14.13
2022-12-09T04:19:09.662Z,16.08
2022-12-09T04:21:36.651Z,12.68
2022-12-09T04:24:03.736Z,22.83
2022-12-09T04:26:30.492Z,15.10
2022-12-09T04:28:57.436Z,14.70
2022-12-09T04:31:24.386Z,15.52
2022-12-09T04:33:51.006Z,14.63
2022-12-09T04:36:19.995Z,13.60
2022-12-09T04:38:47.756Z,15.18
2022-12-09T04:41:15.514Z,11.50
2022-12-09T04:43:42.145Z,14.18
2022-12-09T04:46:13.631Z,14.77
2022-12-09T04:48:41.201Z,15.07
2022-12-09T04:51:09.745Z,15.20
2022-12-09T04:53:36.951Z,16.65
2022-12-09T04:56:11.306Z,14.93
2022-12-09T04:58:38.535Z,14.27
2022-12-09T05:01:10.159Z,15.25
2022-12-09T05:03:37.733Z,15.25
2022-12-09T05:06:07.065Z,13.05
2022-12-09T05:08:34.300Z,17.35
2022-12-09T05:11:01.563Z,16.60
2022-12-09T05:13:28.613Z,13.52
2022-12-09T05:16:04.512Z,16.00
2022-12-09T05:18:32.296Z,23.25
2022-12-09T05:21:04.725Z,14.57
2022-12-09T05:23:31.396Z,16.08
2022-12-09T05:25:58.284Z,14.32
2022-12-09T05:28:25.212Z,18.45
2022-12-09T05:30:51.852Z,15.60
2022-12-09T05:33:18.681Z,13.82
2022-12-09T05:35:52.709Z,16.52
2022-12-09T05:38:20.316Z,25.10
2022-12-09T05:40:47.250Z,15.18
2022-12-09T05:43:13.968Z,9.65
2022-12-09T05:45:40.905Z,17.90
2022-12-09T05:48:08.316Z,10.68
2022-12-09T05:50:35.382Z,14.02
2022-12-09T05:53:02.227Z,16.40
2022-12-09T05:55:29.103Z,26.55
2022-12-09T05:57:56.199Z,20.38
2022-12-09T06:00:23.234Z,17.38
2022-12-09T06:02:50.300Z,18.27
2022-12-09T06:05:17.232Z,16.88
2022-12-09T06:07:44.176Z,17.45
2022-12-09T06:10:11.936Z,12.70
2022-12-09T06:12:39.136Z,17.45
2022-12-09T06:15:09.752Z,15.05
2022-12-09T06:17:37.457Z,17.55
2022-12-09T06:20:05.801Z,16.23
2022-12-09T06:22:34.596Z,17.83
2022-12-09T06:25:01.172Z,17.02
2022-12-09T06:27:27.748Z,14.27
2022-12-09T06:29:54.740Z,20.30
2022-12-09T06:32:21.803Z,17.13
2022-12-09T06:34:48.685Z,18.33
2022-12-09T06:37:16.688Z,14.52
2022-12-09T06:39:43.739Z,18.27
2022-12-09T06:42:10.760Z,15.93
2022-12-09T06:44:39.574Z,15.13
2022-12-09T06:47:09.357Z,15.70
2022-12-09T06:49:36.885Z,14.40
2022-12-09T06:52:03.957Z,29.77
2022-12-09T06:54:30.958Z,19.27
2022-12-09T06:56:57.795Z,17.63
2022-12-09T06:59:25.484Z,19.00
2022-12-09T07:01:52.582Z,18.45
2022-12-09T07:04:19.648Z,16.83
2022-12-09T07:06:46.970Z,16.50
2022-12-09T07:09:18.014Z,24.13
2022-12-09T07:11:48.992Z,23.75
2022-12-09T07:14:18.401Z,27.15
2022-12-09T07:16:45.408Z,29.95
2022-12-09T07:19:20.197Z,30.20
2022-12-09T07:21:47.200Z,21.25
2022-12-09T07:24:14.019Z,18.55
2022-12-09T07:26:40.849Z,26.25
2022-12-09T07:29:08.633Z,15.02
2022-12-09T07:31:36.469Z,18.10
2022-12-09T07:34:05.008Z,28.42
2022-12-09T07:36:34.319Z,19.13
2022-12-09T07:39:07.585Z,19.98
2022-12-09T07:41:34.541Z,26.00
2022-12-09T07:44:01.399Z,25.35
2022-12-09T07:46:28.626Z,20.58
2022-12-09T07:48:57.321Z,25.33
2022-12-09T07:51:25.185Z,26.63
2022-12-09T07:53:52.454Z,20.02
2022-12-09T07:56:19.611Z,24.27
2022-12-09T07:58:48.101Z,18.98
2022-12-09T08:01:21.054Z,20.20
2022-12-09T08:03:49.531Z,18.63
2022-12-09T08:06:19.365Z,19.45
2022-12-09T08:08:46.584Z,15.30
2022-12-09T08:11:19.197Z,16.13
2022-12-09T08:13:46.895Z,13.95
2022-12-09T08:16:15.988Z,15.82
2022-12-09T08:18:43.938Z,17.48
2022-12-09T08:21:19.623Z,17.60
2022-12-09T08:23:46.621Z,15.88
2022-12-09T08:26:16.223Z,16.90
2022-12-09T08:28:43.053Z,15.88
2022-12-09T08:31:12.479Z,16.60
2022-12-09T08:33:39.803Z,21.02
2022-12-09T08:36:14.681Z,17.63
2022-12-09T08:38:42.159Z,15.98
2022-12-09T08:41:10.493Z,15.57
2022-12-09T08:43:38.777Z,20.10
2022-12-09T08:46:05.569Z,12.68
2022-12-09T08:48:36.353Z,14.82
2022-12-09T08:51:03.805Z,15.05
2022-12-09T08:53:30.945Z,16.38
2022-12-09T08:55:57.691Z,13.95
2022-12-09T08:58:24.410Z,18.23
2022-12-09T09:00:51.633Z,16.50
2022-12-09T09:03:18.423Z,18.73
2022-12-09T09:05:45.892Z,21.70
2022-12-09T09:08:13.382Z,18.25
2022-12-09T09:10:40.231Z,15.63
2022-12-09T09:13:07.618Z,16.70
2022-12-09T09:15:34.451Z,16.17
2022-12-09T09:18:01.359Z,21.40
2022-12-09T09:20:28.185Z,15.25
2022-12-09T09:22:59.571Z,19.13
2022-12-09T09:25:30.729Z,15.10
2022-12-09T09:27:57.791Z,17.75
2022-12-09T09:30:24.649Z,21.38
2022-12-09T09:32:51.945Z,16.45
2022-12-09T09:35:18.879Z,21.60
2022-12-09T09:37:45.886Z,20.98
2022-12-09T09:40:13.458Z,17.60
2022-12-09T09:42:47.771Z,25.23
2022-12-09T09:45:19.966Z,14.05
2022-12-09T09:48:02.637Z,15.80
2022-12-09T09:50:44.456Z,12.45
2022-12-09T09:53:24.025Z,16.33
2022-12-09T09:56:10.457Z,12.70
2022-12-09T09:58:39.940Z,13.98
2022-12-09T10:01:08.031Z,13.43
2022-12-09T10:03:38.317Z,13.60
2022-12-09T10:06:33.307Z,14.27
2022-12-09T10:09:25.255Z,15.52
2022-12-09T10:12:01.901Z,10.90
2022-12-09T10:14:40.166Z,12.07
2022-12-09T10:17:30.620Z,11.35
2022-12-09T10:20:06.495Z,11.70
2022-12-09T10:22:56.707Z,11.57
2022-12-09T10:25:26.715Z,15.10
2022-12-09T10:28:18.086Z,15.27
2022-12-09T10:30:45.436Z,11.55
2022-12-09T10:33:14.170Z,12.35
2022-12-09T10:35:41.692Z,9.48
2022-12-09T10:38:12.697Z,13.25
2022-12-09T10:40:45.999Z,16.40
2022-12-09T10:43:44.176Z,9.85
2022-12-09T10:46:23.207Z,9.02
2022-12-09T10:48:50.519Z,12.60
2022-12-09T10:51:19.837Z,11.23
2022-12-09T10:54:00.905Z,15.73
2022-12-09T10:56:35.835Z,11.85
2022-12-09T10:59:13.641Z,10.43
2022-12-09T11:01:51.589Z,9.38
2022-12-09T11:04:39.826Z,9.15
2022-12-09T11:07:07.569Z,9.60
2022-12-09T11:09:38.020Z,14.38
2022-12-09T11:12:25.771Z,24.50
2022-12-09T11:14:55.516Z,17.50
2022-12-09T11:17:26.893Z,15.88
2022-12-09T11:20:04.614Z,12.65
2022-12-09T11:22:41.071Z,10.50
2022-12-09T11:25:22.773Z,9.43
2022-12-09T11:27:55.549Z,10.20
2022-12-09T11:30:24.831Z,14.38
2022-12-09T11:33:14.309Z,12.35
2022-12-09T11:35:44.174Z,7.93
2022-12-09T11:38:30.774Z,6.82
2022-12-09T11:41:14.839Z,12.27
2022-12-09T11:43:44.168Z,10.35
2022-12-09T11:46:13.834Z,12.05
2022-12-09T11:48:51.851Z,11.13
2022-12-09T11:51:28.016Z,10.55
2022-12-09T11:54:03.770Z,10.40
2022-12-09T11:56:32.588Z,12.30
2022-12-09T11:59:18.847Z,11.05
2022-12-09T12:02:06.008Z,11.15
2022-12-09T12:04:39.191Z,8.55
2022-12-09T12:07:15.158Z,9.32
2022-12-09T12:09:44.968Z,5.75
2022-12-09T12:12:20.295Z,7.88
2022-12-09T12:14:47.032Z,7.93
2022-12-09T12:17:34.902Z,9.57
2022-12-09T12:20:03.599Z,5.82
2022-12-09T12:22:55.104Z,5.03
2022-12-09T12:25:52.441Z,4.95
2022-12-09T12:29:12.804Z,9.13
2022-12-09T12:32:15.598Z,6.35
2022-12-09T12:35:26.451Z,6.68
2022-12-09T12:38:18.037Z,6.82
2022-12-09T12:41:11.661Z,6.85
2022-12-09T12:44:17.225Z,9.82
2022-12-09T12:46:56.353Z,5.50
2022-12-09T12:49:56.843Z,5.93
2022-12-09T12:52:54.372Z,11.90
2022-12-09T12:55:31.506Z,6.90
2022-12-09T12:58:17.288Z,7.30
2022-12-09T13:01:05.747Z,5.00
2022-12-09T13:03:53.230Z,7.93
2022-12-09T13:06:24.823Z,4.72
2022-12-09T13:09:03.298Z,10.38
2022-12-09T13:11:50.992Z,9.85
2022-12-09T13:14:24.937Z,5.25
2022-12-09T13:16:52.937Z,9.10
2022-12-09T13:19:25.903Z,6.65
2022-12-09T13:21:52.990Z,6.97
2022-12-09T13:24:26.873Z,6.60
2022-12-09T13:26:59.620Z,6.72
2022-12-09T13:29:44.462Z,5.22
2022-12-09T13:32:27.096Z,7.10
2022-12-09T13:35:03.928Z,6.18
2022-12-09T13:37:54.680Z,6.82
2022-12-09T13:40:21.227Z,13.07
2022-12-09T13:42:58.784Z,11.45
2022-12-09T13:45:35.535Z,6.07
2022-12-09T13:48:22.355Z,5.85
2022-12-09T13:50:54.081Z,6.78
2022-12-09T13:53:20.740Z,6.28
2022-12-09T13:56:00.281Z,5.78
2022-12-09T13:58:43.858Z,4.65
2022-12-09T14:01:31.632Z,6.15
2022-12-09T14:04:12.364Z,6.50
2022-12-09T14:06:45.002Z,10.30
2022-12-09T14:09:36.434Z,8.18
2022-12-09T14:12:10.650Z,9.88
2022-12-09T14:14:46.627Z,6.75
2022-12-09T14:17:36.358Z,8.60
2022-12-09T14:20:19.298Z,8.07
2022-12-09T14:23:06.794Z,4.30
2022-12-09T14:25:36.158Z,5.40
2022-12-09T14:28:11.753Z,9.52
2022-12-09T14:30:49.292Z,12.43
2022-12-09T14:33:22.819Z,12.45
2022-12-09T14:35:53.970Z,12.15
2022-12-09T14:38:31.133Z,8.45
2022-12-09T14:41:21.826Z,12.15
2022-12-09T14:44:27.004Z,10.82
2022-12-09T14:47:20.955Z,8.70
2022-12-09T14:49:49.778Z,13.93
2022-12-09T14:52:32.330Z,9.63
2022-12-09T14:55:08.842Z,9.40
2022-12-09T14:57:46.429Z,11.80
2022-12-09T15:00:30.332Z,10.25
2022-12-09T15:03:30.567Z,11.80
2022-12-09T15:06:17.026Z,11.68
2022-12-09T15:08:43.753Z,13.82
2022-12-09T15:11:15.853Z,12.40
2022-12-09T15:13:46.506Z,12.20
2022-12-09T15:16:18.931Z,10.73
2022-12-09T15:18:45.793Z,12.82
2022-12-09T15:21:27.083Z,11.48
2022-12-09T15:23:54.132Z,11.70
2022-12-09T15:26:22.589Z,12.88
2022-12-09T15:28:51.556Z,7.20
2022-12-09T15:31:27.717Z,15.15
2022-12-09T15:33:56.711Z,11.85
2022-12-09T15:36:31.282Z,11.25
2022-12-09T15:39:02.730Z,14.02
2022-12-09T15:42:00.286Z,19.30
2022-12-09T15:44:30.464Z,12.63
2022-12-09T15:46:57.947Z,11.95
2022-12-09T15:49:31.927Z,13.15
2022-12-09T15:52:02.191Z,11.93
2022-12-09T15:54:36.714Z,13.75
2022-12-09T15:57:05.412Z,14.85
2022-12-09T15:59:43.341Z,14.50
2022-12-09T16:02:15.294Z,12.20
2022-12-09T16:04:46.302Z,13.40
2022-12-09T16:07:16.006Z,12.23
2022-12-09T16:10:05.219Z,13.52
2022-12-09T16:12:32.569Z,15.18
2022-12-09T16:14:59.335Z,19.55
2022-12-09T16:17:32.656Z,19.15
2022-12-09T16:20:18.859Z,19.08
2022-12-09T16:22:49.351Z,17.95
2022-12-09T16:25:25.649Z,19.70
2022-12-09T16:28:00.969Z,18.92
2022-12-09T16:30:30.981Z,17.63
2022-12-09T16:32:59.950Z,15.73
2022-12-09T16:35:28.576Z,16.20
2022-12-09T16:37:58.273Z,19.30
2022-12-09T16:40:24.829Z,16.77
2022-12-09T16:43:14.018Z,18.55
2022-12-09T16:45:41.613Z,15.98
2022-12-09T16:48:09.406Z,16.73
2022-12-09T16:50:39.571Z,14.90
2022-12-09T16:53:13.792Z,15.35
2022-12-09T16:55:48.252Z,12.93
2022-12-09T16:58:14.808Z,12.93
2022-12-09T17:00:41.452Z,13.02
2022-12-09T17:03:29.049Z,14.27
2022-12-09T17:05:55.615Z,18.42
2022-12-09T17:08:22.375Z,16.83
2022-12-09T17:10:48.992Z,15.18
2022-12-09T17:13:15.579Z,19.23
2022-12-09T17:15:42.233Z,21.42
2022-12-09T17:18:09.765Z,29.75
2022-12-09T17:20:37.840Z,26.70
2022-12-09T17:23:05.130Z,27.33
2022-12-09T17:25:33.148Z,33.67
2022-12-09T17:28:04.736Z,29.65
2022-12-09T17:30:31.329Z,13.23
2022-12-09T17:33:00.667Z,20.08
2022-12-09T17:35:27.326Z,26.33
2022-12-09T17:37:53.914Z,13.25
2022-12-09T17:40:20.488Z,13.35
2022-12-09T17:42:47.121Z,15.38
2022-12-09T17:45:13.732Z,14.23
2022-12-09T17:47:40.330Z,14.82
2022-12-09T17:50:07.655Z,13.07
2022-12-09T17:52:34.407Z,12.35
2022-12-09T17:55:00.964Z,12.57
2022-12-09T17:57:27.535Z,14.02
2022-12-09T17:59:54.122Z,15.15
2022-12-09T18:02:20.778Z,15.02
2022-12-09T18:04:47.359Z,18.83
2022-12-09T18:07:13.916Z,25.90
2022-12-09T18:09:40.550Z,17.92
2022-12-09T18:12:07.414Z,20.10
2022-12-09T18:14:34.322Z,25.60
2022-12-09T18:17:01.238Z,18.52
2022-12-09T18:19:28.368Z,14.43
2022-12-09T18:21:55.641Z,19.73
2022-12-09T18:24:22.506Z,12.20
2022-12-09T18:26:49.203Z,16.52
2022-12-09T18:29:15.784Z,14.45
2022-12-09T18:31:45.471Z,13.30
2022-12-09T18:34:12.115Z,17.60
2022-12-09T18:36:38.743Z,19.92
2022-12-09T18:39:05.654Z,17.45
2022-12-09T18:41:33.280Z,19.48
2022-12-09T18:44:02.677Z,14.20
2022-12-09T18:46:32.799Z,13.20
2022-12-09T18:49:07.371Z,17.83
2022-12-09T18:51:34.513Z,13.88
2022-12-09T18:54:03.235Z,8.85
2022-12-09T18:56:30.520Z,19.95
2022-12-09T18:59:06.963Z,28.73
2022-12-09T19:01:38.839Z,24.00
2022-12-09T19:04:07.075Z,23.90
2022-12-09T19:06:37.138Z,27.10
2022-12-09T19:09:16.508Z,24.95
2022-12-09T19:11:44.982Z,28.45
2022-12-09T19:14:12.154Z,19.75
2022-12-09T19:16:39.020Z,15.55
2022-12-09T19:19:10.102Z,15.57
2022-12-09T19:21:38.025Z,12.23
2022-12-09T19:24:05.048Z,16.20
2022-12-09T19:26:34.331Z,15.98
2022-12-09T19:29:03.982Z,21.02
2022-12-09T19:31:30.568Z,19.45
2022-12-09T19:34:02.669Z,20.50
2022-12-09T19:36:31.010Z,20.45
2022-12-09T19:38:58.161Z,15.00
2022-12-09T19:41:24.922Z,23.05
2022-12-09T19:43:56.403Z,24.98
2022-12-09T19:46:23.421Z,21.95
2022-12-09T19:48:50.251Z,18.42
2022-12-09T19:51:18.369Z,19.38
2022-12-09T19:53:46.176Z,16.50
2022-12-09T19:56:18.011Z,17.20
2022-12-09T19:58:45.673Z,16.55
2022-12-09T20:01:17.376Z,12.40
2022-12-09T20:03:45.942Z,30.98
2022-12-09T20:06:14.544Z,16.25
2022-12-09T20:08:41.483Z,19.00
2022-12-09T20:11:35.036Z,18.95
2022-12-09T20:14:04.142Z,18.60
2022-12-09T20:16:31.078Z,18.73
2022-12-09T20:18:59.521Z,18.35
2022-12-09T20:21:28.590Z,20.15
2022-12-09T20:23:55.535Z,21.80
2022-12-09T20:26:24.980Z,17.58
2022-12-09T20:28:53.703Z,19.25
2022-12-09T20:31:26.126Z,17.80
2022-12-09T20:33:57.957Z,17.95
2022-12-09T20:36:26.875Z,21.17
2022-12-09T20:38:55.896Z,23.25
2022-12-09T20:41:23.687Z,23.50
2022-12-09T20:43:51.637Z,26.45
2022-12-09T20:46:21.285Z,21.50
2022-12-09T20:48:48.846Z,22.48
2022-12-09T20:51:37.146Z,24.15
2022-12-09T20:54:05.257Z,25.27
2022-12-09T20:56:33.359Z,24.55
2022-12-09T20:59:00.356Z,19.52
2022-12-09T21:01:32.815Z,18.85
2022-12-09T21:04:01.209Z,19.02
2022-12-09T21:06:31.098Z,18.85
2022-12-09T21:09:06.749Z,18.05
2022-12-09T21:11:33.614Z,20.20
2022-12-09T21:14:02.348Z,27.63
2022-12-09T21:16:34.826Z,17.40
2022-12-09T21:19:05.559Z,19.60
2022-12-09T21:21:35.276Z,15.02
2022-12-09T21:24:02.899Z,19.83
2022-12-09T21:26:29.993Z,17.75
2022-12-09T21:28:57.949Z,10.45
2022-12-09T21:31:27.260Z,21.42
2022-12-09T21:33:56.248Z,19.67
2022-12-09T21:36:25.544Z,20.23
2022-12-09T21:38:53.132Z,17.83
2022-12-09T21:41:23.086Z,22.25
2022-12-09T21:43:49.899Z,22.35
2022-12-09T21:46:22.925Z,23.88
2022-12-09T21:48:52.740Z,23.25
2022-12-09T21:51:20.675Z,24.95
2022-12-09T21:53:48.363Z,21.33
2022-12-09T21:56:18.764Z,22.80
2022-12-09T21:58:47.960Z,24.02
2022-12-09T22:01:19.309Z,22.33
2022-12-09T22:03:47.100Z,18.00
2022-12-09T22:06:14.867Z,20.45
2022-12-09T22:08:41.648Z,19.13
2022-12-09T22:11:17.583Z,24.48
2022-12-09T22:13:44.619Z,18.67
2022-12-09T22:16:24.228Z,25.42
2022-12-09T22:18:53.831Z,21.05
2022-12-09T22:21:25.142Z,24.60
2022-12-09T22:24:00.319Z,45.78
2022-12-09T22:26:27.333Z,79.70
2022-12-09T22:28:54.863Z,33.22
2022-12-09T22:31:28.692Z,21.05
2022-12-09T22:33:58.875Z,20.85
2022-12-09T22:36:25.753Z,18.85
2022-12-09T22:38:53.551Z,17.70
2022-12-09T22:41:23.007Z,16.67
2022-12-09T22:43:50.487Z,20.90
2022-12-09T22:46:20.374Z,21.48
2022-12-09T22:48:47.483Z,19.05
2022-12-09T22:51:16.717Z,18.45
2022-12-09T22:53:44.116Z,22.27
2022-12-09T22:56:11.928Z,26.42
2022-12-09T22:58:38.809Z,28.95
2022-12-09T23:01:20.469Z,22.83
2022-12-09T23:03:47.739Z,17.17
2022-12-09T23:06:15.144Z,15.52
2022-12-09T23:08:43.515Z,19.30
2022-12-09T23:11:16.280Z,19.77
2022-12-09T23:13:43.304Z,20.40
2022-12-09T23:16:13.390Z,19.65
2022-12-09T23:18:40.131Z,17.50
2022-12-09T23:21:12.191Z,15.82
2022-12-09T23:23:39.397Z,29.20
2022-12-09T23:26:12.746Z,18.83
2022-12-09T23:28:41.621Z,18.00
2022-12-09T23:31:10.846Z,17.05
2022-12-09T23:33:39.277Z,16.98
2022-12-09T23:36:13.056Z,16.55
2022-12-09T23:38:40.504Z,16.33
2022-12-09T23:41:07.364Z,17.25
2022-12-09T23:43:35.535Z,19.63
2022-12-09T23:46:08.901Z,18.67
2022-12-09T23:48:41.426Z,17.00
2022-12-09T23:51:13.441Z,18.08
2022-12-09T23:53:42.725Z,15.88
2022-12-09T23:56:18.370Z,16.00
2022-12-09T23:58:45.924Z,16.13
